Grange Hall, Texas
Current Conditions -  °F | °C
As of 4:35 AM on Thursday 27 Nov 2014 (Local Time) from KASL Reporting Station
Clear Clear  
Wind Chill: 41°   Ceiling: Unl
Heat Index: 46°   Visibility: 10mi
Dew Point: 31°   Wind: 8mph
Humidity: 58%   Direction: 360°N
Pressure: 30.46"   Gusts: NA
Location:  32.4675°N, 94.3321°W
Report Text: KASL 271035Z AUTO 36007KT 10SM CLR 08/00 A3046 RMK AO1 T00761003
Loading
Personal Weather Stations






























Interactive Weather Map New forecast layout! Learn more

10-Day Weather Forecast

Advertisements
Track Severe Weather on mobile